createdAt,value
2022-08-17T00:03:18.486Z,100371.53
2022-08-17T00:08:23.365Z,100357.81
2022-08-17T00:13:28.482Z,100357.53
2022-08-17T00:19:01.476Z,100359.22
2022-08-17T00:23:54.855Z,100354.88
2022-08-17T00:28:56.789Z,100352.56
2022-08-17T00:33:59.270Z,100351.78
2022-08-17T00:39:00.870Z,100344.28
2022-08-17T00:44:04.725Z,100349.97
2022-08-17T00:49:07.641Z,100346.78
2022-08-17T00:54:13.965Z,100327.31
2022-08-17T00:59:19.021Z,100330.28
2022-08-17T01:04:22.315Z,100330.66
2022-08-17T01:09:27.744Z,100323.22
2022-08-17T01:14:29.497Z,100318.66
2022-08-17T01:19:34.351Z,100320.06
2022-08-17T01:24:38.623Z,100318.59
2022-08-17T01:29:44.788Z,100325.84
2022-08-17T01:34:50.254Z,100321.69
2022-08-17T01:40:32.849Z,100320.03
2022-08-17T01:45:40.994Z,100321.19
2022-08-17T01:50:44.597Z,100312.91
2022-08-17T01:55:55.672Z,100321.66
2022-08-17T02:01:00.601Z,100325.53
2022-08-17T02:06:05.240Z,100327.47
2022-08-17T02:11:13.702Z,100317.13
2022-08-17T02:16:16.158Z,100313.31
2022-08-17T02:21:17.758Z,100311.34
2022-08-17T02:26:24.007Z,100311.28
2022-08-17T02:31:27.475Z,100311.91
2022-08-17T02:36:29.233Z,100315.59
2022-08-17T02:41:30.937Z,100318.09
2022-08-17T02:46:32.644Z,100314.13
2022-08-17T02:51:35.134Z,100313.16
2022-08-17T02:56:36.655Z,100317.41
2022-08-17T03:01:38.328Z,100323.97
2022-08-17T03:06:39.915Z,100310.72
2022-08-17T03:11:41.419Z,100306.03
2022-08-17T03:16:43.097Z,100310.22
2022-08-17T03:21:45.510Z,100301.59
2022-08-17T03:26:47.063Z,100300.59
2022-08-17T03:31:49.770Z,100293.56
2022-08-17T03:36:51.328Z,100299.00
2022-08-17T03:41:52.806Z,100293.56
2022-08-17T03:47:12.779Z,100296.88
2022-08-17T03:52:32.975Z,100295.03
2022-08-17T03:57:34.519Z,100305.66
2022-08-17T04:02:36.110Z,100308.03
2022-08-17T04:07:37.790Z,100315.41
2022-08-17T04:12:51.380Z,100312.78
2022-08-17T04:17:53.570Z,100325.03
2022-08-17T04:22:56.383Z,100330.97
2022-08-17T04:27:59.846Z,100329.19
2022-08-17T04:33:07.103Z,100325.97
2022-08-17T04:38:12.035Z,100339.31
2022-08-17T04:43:21.225Z,100350.97
2022-08-17T04:48:23.878Z,100341.09
2022-08-17T04:53:36.368Z,100336.53
2022-08-17T04:58:38.304Z,100336.63
2022-08-17T05:03:39.938Z,100345.84
2022-08-17T05:08:41.705Z,100342.50
2022-08-17T05:13:43.474Z,100387.78
2022-08-17T05:18:45.748Z,100383.97
2022-08-17T05:23:54.676Z,100355.28
2022-08-17T05:29:02.866Z,100378.03
2022-08-17T05:34:04.617Z,100386.75
2022-08-17T05:39:06.791Z,100408.44
2022-08-17T05:44:08.248Z,100400.25
2022-08-17T05:49:18.869Z,100404.78
2022-08-17T05:54:53.863Z,100403.59
2022-08-17T06:00:15.224Z,100390.41
2022-08-17T06:05:39.521Z,100376.47
2022-08-17T06:10:51.499Z,100384.31
2022-08-17T06:16:33.291Z,100382.09
2022-08-17T06:21:35.666Z,100384.31
2022-08-17T06:26:43.254Z,100384.63
2022-08-17T06:31:45.172Z,100380.78
2022-08-17T06:37:04.149Z,100396.22
2022-08-17T06:43:05.074Z,100396.91
2022-08-17T06:48:09.409Z,100407.16
2022-08-17T06:53:35.391Z,100401.66
2022-08-17T06:58:40.285Z,100395.78
2022-08-17T07:04:04.983Z,100404.06
2022-08-17T07:09:15.772Z,100412.13
2022-08-17T07:14:17.615Z,100414.16
2022-08-17T07:19:22.468Z,100429.94
2022-08-17T07:24:45.153Z,100423.00
2022-08-17T07:30:10.282Z,100429.16
2022-08-17T07:35:31.072Z,100422.00
2022-08-17T07:40:48.010Z,100427.09
2022-08-17T07:46:17.994Z,100446.41
2022-08-17T07:51:25.228Z,100447.16
2022-08-17T07:56:44.823Z,100450.53
2022-08-17T08:02:06.156Z,100456.41
2022-08-17T08:07:26.301Z,100465.78
2022-08-17T08:12:48.006Z,100469.00
2022-08-17T08:18:02.786Z,100465.56
2022-08-17T08:23:19.956Z,100474.47
2022-08-17T08:28:24.875Z,100480.44
2022-08-17T08:33:39.813Z,100475.91
2022-08-17T08:38:53.702Z,100473.41
2022-08-17T08:44:21.983Z,100482.00
2022-08-17T08:50:03.854Z,100491.06
2022-08-17T08:55:16.852Z,100500.34
2022-08-17T09:00:25.250Z,100499.78
2022-08-17T09:05:55.907Z,100508.63
2022-08-17T09:11:06.075Z,100506.06
2022-08-17T09:16:16.195Z,100506.31
2022-08-17T09:21:33.726Z,100506.31
2022-08-17T09:26:39.366Z,100505.03
2022-08-17T09:32:03.949Z,100506.75
2022-08-17T09:37:35.447Z,100512.75
2022-08-17T09:42:47.358Z,100511.94
2022-08-17T09:47:59.736Z,100510.84
2022-08-17T09:53:01.963Z,100505.09
2022-08-17T09:58:29.273Z,100505.81
2022-08-17T10:04:07.243Z,100508.84
2022-08-17T10:09:20.051Z,100511.78
2022-08-17T10:14:44.197Z,100529.56
2022-08-17T10:20:00.891Z,100527.13
2022-08-17T10:25:26.116Z,100541.16
2022-08-17T10:30:35.946Z,100543.28
2022-08-17T10:35:50.899Z,100552.44
2022-08-17T10:40:53.107Z,100562.56
2022-08-17T10:46:27.632Z,100560.44
2022-08-17T10:51:38.290Z,100545.44
2022-08-17T10:56:50.333Z,100523.63
2022-08-17T11:02:06.503Z,100517.84
2022-08-17T11:07:49.386Z,100488.09
2022-08-17T11:13:01.199Z,100487.09
2022-08-17T11:18:21.596Z,100498.13
2022-08-17T11:23:53.696Z,100498.81
2022-08-17T11:29:03.666Z,100495.84
2022-08-17T11:34:23.048Z,100504.34
2022-08-17T11:39:37.174Z,100515.22
2022-08-17T11:44:52.376Z,100515.38
2022-08-17T11:50:19.355Z,100531.13
2022-08-17T11:55:37.491Z,100541.25
2022-08-17T12:00:47.316Z,100545.56
2022-08-17T12:05:50.228Z,100556.13
2022-08-17T12:10:58.550Z,100565.28
2022-08-17T12:16:00.819Z,100565.16
2022-08-17T12:21:17.658Z,100562.56
2022-08-17T12:26:24.935Z,100569.25
2022-08-17T12:31:30.875Z,100570.41
2022-08-17T12:36:33.092Z,100573.25
2022-08-17T12:41:46.744Z,100576.78
2022-08-17T12:46:54.407Z,100585.81
2022-08-17T12:52:14.056Z,100575.09
2022-08-17T12:57:44.101Z,100570.50
2022-08-17T13:03:05.992Z,100569.22
2022-08-17T13:08:15.218Z,100569.06
2022-08-17T13:13:20.830Z,100589.97
2022-08-17T13:18:28.451Z,100583.00
2022-08-17T13:23:31.353Z,100571.59
2022-08-17T13:28:36.601Z,100577.34
2022-08-17T13:33:43.702Z,100577.66
2022-08-17T13:38:49.657Z,100572.84
2022-08-17T13:43:51.412Z,100564.63
2022-08-17T13:49:11.980Z,100572.78
2022-08-17T13:54:25.726Z,100568.19
2022-08-17T13:59:53.275Z,100569.44
2022-08-17T14:04:54.163Z,100565.34
2022-08-17T14:10:00.417Z,100564.81
2022-08-17T14:15:03.270Z,100564.19
2022-08-17T14:20:07.782Z,100548.59
2022-08-17T14:25:12.143Z,100549.88
2022-08-17T14:30:14.630Z,100548.84
2022-08-17T14:35:16.232Z,100547.25
2022-08-17T14:40:20.822Z,100551.84
2022-08-17T14:45:30.293Z,100550.44
2022-08-17T14:50:37.401Z,100556.19
2022-08-17T14:55:42.211Z,100545.00
2022-08-17T15:00:43.911Z,100533.97
2022-08-17T15:05:46.710Z,100528.94
2022-08-17T15:10:50.693Z,100529.84
2022-08-17T15:15:52.683Z,100527.53
2022-08-17T15:20:54.603Z,100528.38
2022-08-17T15:25:56.135Z,100522.34
2022-08-17T15:30:57.630Z,100526.22
2022-08-17T15:36:03.864Z,100525.50
2022-08-17T15:41:08.563Z,100518.22
2022-08-17T15:46:15.079Z,100513.09
2022-08-17T15:51:16.499Z,100510.56
2022-08-17T15:56:18.170Z,100504.56
2022-08-17T16:02:21.606Z,100500.56
2022-08-17T16:06:43.552Z,100510.88
2022-08-17T16:11:45.991Z,100520.63
2022-08-17T16:16:55.196Z,100529.22
2022-08-17T16:21:56.658Z,100523.50
2022-08-17T16:26:58.679Z,100518.06
2022-08-17T16:32:13.420Z,100521.78
2022-08-17T16:37:15.183Z,100521.19
2022-08-17T16:42:30.669Z,100510.03
2022-08-17T16:47:32.175Z,100514.03
2022-08-17T16:52:34.142Z,100522.38
2022-08-17T16:57:37.483Z,100529.78
2022-08-17T17:02:49.564Z,100531.06
2022-08-17T17:08:08.871Z,100534.69
2022-08-17T17:13:19.919Z,100528.81
2022-08-17T17:18:31.554Z,100518.91
2022-08-17T17:23:42.615Z,100528.34
2022-08-17T17:29:08.895Z,100534.63
2022-08-17T17:34:15.783Z,100524.09
2022-08-17T17:39:44.671Z,100539.44
2022-08-17T17:45:09.639Z,100540.31
2022-08-17T17:50:11.383Z,100548.47
2022-08-17T17:55:25.995Z,100548.84
2022-08-17T18:00:34.443Z,100550.28
2022-08-17T18:06:09.844Z,100555.72
2022-08-17T18:11:36.975Z,100547.09
2022-08-17T18:16:42.653Z,100567.97
2022-08-17T18:21:49.191Z,100551.72
2022-08-17T18:26:56.718Z,100570.78
2022-08-17T18:32:16.708Z,100586.03
2022-08-17T18:37:40.717Z,100590.59
2022-08-17T18:43:00.484Z,100593.13
2022-08-17T18:48:02.556Z,100596.78
2022-08-17T18:53:26.801Z,100604.94
2022-08-17T18:58:31.922Z,100600.94
2022-08-17T19:03:42.878Z,100617.84
2022-08-17T19:08:44.410Z,100621.56
2022-08-17T19:13:56.688Z,100628.09
2022-08-17T19:19:21.770Z,100630.38
2022-08-17T19:24:29.966Z,100639.78
2022-08-17T19:29:37.748Z,100634.22
2022-08-17T19:34:42.332Z,100634.59
2022-08-17T19:40:02.624Z,100623.25
2022-08-17T19:45:34.649Z,100623.38
2022-08-17T19:50:48.226Z,100619.53
2022-08-17T19:55:50.940Z,100618.47
2022-08-17T20:00:54.238Z,100634.09
2022-08-17T20:06:15.091Z,100632.63
2022-08-17T20:11:52.088Z,100641.47
2022-08-17T20:16:53.841Z,100648.88
2022-08-17T20:22:14.272Z,100639.38
2022-08-17T20:27:20.270Z,100650.34
2022-08-17T20:32:35.493Z,100650.94
2022-08-17T20:37:43.083Z,100663.50
2022-08-17T20:42:44.643Z,100657.97
2022-08-17T20:53:47.560Z,100663.53
2022-08-17T20:58:49.252Z,100667.31
2022-08-17T21:03:52.241Z,100676.97
2022-08-17T21:09:29.897Z,100677.81
2022-08-17T21:14:52.103Z,100674.75
2022-08-17T21:20:16.286Z,100669.09
2022-08-17T21:25:32.454Z,100670.25
2022-08-17T21:30:33.842Z,100668.91
2022-08-17T21:36:13.232Z,100672.88
2022-08-17T21:41:29.446Z,100672.47
2022-08-17T21:46:37.600Z,100675.47
2022-08-17T21:51:49.801Z,100669.66
2022-08-17T21:56:51.987Z,100677.00
2022-08-17T22:01:55.918Z,100677.78
2022-08-17T22:07:00.323Z,100685.69
2022-08-17T22:12:04.888Z,100685.22
2022-08-17T22:17:15.287Z,100690.97
2022-08-17T22:22:32.775Z,100706.06
2022-08-17T22:27:54.468Z,100701.81
2022-08-17T22:32:56.859Z,100697.03
2022-08-17T22:38:20.202Z,100698.22
2022-08-17T22:43:26.224Z,100699.31
2022-08-17T22:48:30.307Z,100685.88
2022-08-17T22:53:53.763Z,100688.56
2022-08-17T22:59:17.032Z,100695.19
2022-08-17T23:04:36.792Z,100697.13
2022-08-17T23:09:38.889Z,100701.03
2022-08-17T23:14:45.355Z,100703.06
2022-08-17T23:19:46.888Z,100693.56
2022-08-17T23:24:51.457Z,100689.22
2022-08-17T23:29:54.031Z,100700.72
2022-08-17T23:34:56.505Z,100703.13
2022-08-17T23:39:58.074Z,100709.38
2022-08-17T23:44:59.667Z,100707.09
2022-08-17T23:50:05.291Z,100711.13
2022-08-17T23:55:07.691Z,100717.06
